sensor_id;sensor_type;location;lat;lon;timestamp;P1;durP1;ratioP1;P2;durP2;ratioP2
64498;SDS011;51087;55.718;21.122;2023-11-21T00:00:45;15.82;;;6.38;;
64498;SDS011;51087;55.718;21.122;2023-11-21T00:03:11;16.75;;;7.35;;
64498;SDS011;51087;55.718;21.122;2023-11-21T00:05:39;15.25;;;7.25;;
64498;SDS011;51087;55.718;21.122;2023-11-21T00:08:06;13.98;;;6.43;;
64498;SDS011;51087;55.718;21.122;2023-11-21T00:10:31;15.27;;;7.03;;
64498;SDS011;51087;55.718;21.122;2023-11-21T00:12:57;17.02;;;6.72;;
64498;SDS011;51087;55.718;21.122;2023-11-21T00:15:22;13.38;;;6.57;;
64498;SDS011;51087;55.718;21.122;2023-11-21T00:17:47;11.98;;;5.85;;
64498;SDS011;51087;55.718;21.122;2023-11-21T00:20:13;18.08;;;6.85;;
64498;SDS011;51087;55.718;21.122;2023-11-21T00:22:39;12.63;;;6.15;;
64498;SDS011;51087;55.718;21.122;2023-11-21T00:25:06;16.35;;;7.30;;
64498;SDS011;51087;55.718;21.122;2023-11-21T00:27:33;19.30;;;7.50;;
64498;SDS011;51087;55.718;21.122;2023-11-21T00:30:00;17.95;;;7.32;;
64498;SDS011;51087;55.718;21.122;2023-11-21T00:32:25;15.15;;;7.85;;
64498;SDS011;51087;55.718;21.122;2023-11-21T00:34:50;17.60;;;7.22;;
64498;SDS011;51087;55.718;21.122;2023-11-21T00:37:15;15.00;;;7.63;;
64498;SDS011;51087;55.718;21.122;2023-11-21T00:39:41;20.35;;;8.20;;
64498;SDS011;51087;55.718;21.122;2023-11-21T00:42:06;18.45;;;8.27;;
64498;SDS011;51087;55.718;21.122;2023-11-21T00:44:31;15.35;;;7.30;;
64498;SDS011;51087;55.718;21.122;2023-11-21T00:46:57;18.88;;;8.07;;
64498;SDS011;51087;55.718;21.122;2023-11-21T00:49:22;17.80;;;8.05;;
64498;SDS011;51087;55.718;21.122;2023-11-21T00:51:47;14.98;;;7.05;;
64498;SDS011;51087;55.718;21.122;2023-11-21T00:54:12;16.98;;;7.10;;
64498;SDS011;51087;55.718;21.122;2023-11-21T00:56:38;17.95;;;7.32;;
64498;SDS011;51087;55.718;21.122;2023-11-21T00:59:05;16.05;;;6.60;;
64498;SDS011;51087;55.718;21.122;2023-11-21T01:01:30;13.95;;;6.70;;
64498;SDS011;51087;55.718;21.122;2023-11-21T01:03:55;18.63;;;7.80;;
64498;SDS011;51087;55.718;21.122;2023-11-21T01:06:21;15.52;;;7.43;;
64498;SDS011;51087;55.718;21.122;2023-11-21T01:08:46;15.18;;;7.47;;
64498;SDS011;51087;55.718;21.122;2023-11-21T01:11:11;16.48;;;6.93;;
64498;SDS011;51087;55.718;21.122;2023-11-21T01:13:38;15.85;;;7.18;;
64498;SDS011;51087;55.718;21.122;2023-11-21T01:16:04;18.48;;;7.75;;
64498;SDS011;51087;55.718;21.122;2023-11-21T01:18:29;14.63;;;7.40;;
64498;SDS011;51087;55.718;21.122;2023-11-21T01:20:54;12.77;;;6.07;;
64498;SDS011;51087;55.718;21.122;2023-11-21T01:23:20;13.40;;;6.80;;
64498;SDS011;51087;55.718;21.122;2023-11-21T01:25:45;16.40;;;7.13;;
64498;SDS011;51087;55.718;21.122;2023-11-21T01:28:10;16.88;;;7.95;;
64498;SDS011;51087;55.718;21.122;2023-11-21T01:30:36;13.85;;;7.32;;
64498;SDS011;51087;55.718;21.122;2023-11-21T01:33:01;14.60;;;6.68;;
64498;SDS011;51087;55.718;21.122;2023-11-21T01:35:27;15.18;;;7.60;;
64498;SDS011;51087;55.718;21.122;2023-11-21T01:37:53;14.70;;;7.15;;
64498;SDS011;51087;55.718;21.122;2023-11-21T01:40:18;18.65;;;7.75;;
64498;SDS011;51087;55.718;21.122;2023-11-21T01:42:44;19.05;;;7.95;;
64498;SDS011;51087;55.718;21.122;2023-11-21T01:45:10;19.60;;;7.85;;
64498;SDS011;51087;55.718;21.122;2023-11-21T01:47:37;15.73;;;7.68;;
64498;SDS011;51087;55.718;21.122;2023-11-21T01:50:03;16.60;;;7.75;;
64498;SDS011;51087;55.718;21.122;2023-11-21T01:52:29;18.20;;;7.50;;
64498;SDS011;51087;55.718;21.122;2023-11-21T01:54:55;16.88;;;7.93;;
64498;SDS011;51087;55.718;21.122;2023-11-21T01:57:20;17.08;;;7.60;;
64498;SDS011;51087;55.718;21.122;2023-11-21T01:59:46;18.90;;;7.80;;
64498;SDS011;51087;55.718;21.122;2023-11-21T02:02:13;17.50;;;7.32;;
64498;SDS011;51087;55.718;21.122;2023-11-21T02:04:38;19.00;;;8.05;;
64498;SDS011;51087;55.718;21.122;2023-11-21T02:07:04;17.60;;;7.50;;
64498;SDS011;51087;55.718;21.122;2023-11-21T02:09:32;16.75;;;8.05;;
64498;SDS011;51087;55.718;21.122;2023-11-21T02:11:58;18.33;;;7.72;;
64498;SDS011;51087;55.718;21.122;2023-11-21T02:14:25;16.85;;;8.05;;
64498;SDS011;51087;55.718;21.122;2023-11-21T02:16:51;18.23;;;8.35;;
64498;SDS011;51087;55.718;21.122;2023-11-21T02:19:18;16.80;;;8.07;;
64498;SDS011;51087;55.718;21.122;2023-11-21T02:21:45;18.15;;;7.40;;
64498;SDS011;51087;55.718;21.122;2023-11-21T02:24:10;15.77;;;7.05;;
64498;SDS011;51087;55.718;21.122;2023-11-21T02:26:35;17.38;;;7.93;;
64498;SDS011;51087;55.718;21.122;2023-11-21T02:29:01;18.42;;;7.88;;
64498;SDS011;51087;55.718;21.122;2023-11-21T02:31:29;19.83;;;8.57;;
64498;SDS011;51087;55.718;21.122;2023-11-21T02:33:55;17.20;;;7.97;;
64498;SDS011;51087;55.718;21.122;2023-11-21T02:36:20;18.27;;;6.25;;
64498;SDS011;51087;55.718;21.122;2023-11-21T02:38:47;21.42;;;8.20;;
64498;SDS011;51087;55.718;21.122;2023-11-21T02:41:12;22.23;;;8.88;;
64498;SDS011;51087;55.718;21.122;2023-11-21T02:43:38;19.63;;;8.75;;
64498;SDS011;51087;55.718;21.122;2023-11-21T02:46:03;19.48;;;9.07;;
64498;SDS011;51087;55.718;21.122;2023-11-21T02:48:28;19.88;;;8.75;;
64498;SDS011;51087;55.718;21.122;2023-11-21T02:50:55;22.25;;;9.23;;
64498;SDS011;51087;55.718;21.122;2023-11-21T02:53:21;19.77;;;9.20;;
64498;SDS011;51087;55.718;21.122;2023-11-21T02:55:46;24.30;;;8.90;;
64498;SDS011;51087;55.718;21.122;2023-11-21T02:58:12;23.65;;;9.50;;
64498;SDS011;51087;55.718;21.122;2023-11-21T03:00:37;17.73;;;8.65;;
64498;SDS011;51087;55.718;21.122;2023-11-21T03:03:05;21.63;;;8.95;;
64498;SDS011;51087;55.718;21.122;2023-11-21T03:05:30;19.75;;;8.82;;
64498;SDS011;51087;55.718;21.122;2023-11-21T03:07:56;16.50;;;7.30;;
64498;SDS011;51087;55.718;21.122;2023-11-21T03:10:21;25.13;;;9.30;;
64498;SDS011;51087;55.718;21.122;2023-11-21T03:12:46;22.48;;;9.05;;
64498;SDS011;51087;55.718;21.122;2023-11-21T03:15:12;22.30;;;9.27;;
64498;SDS011;51087;55.718;21.122;2023-11-21T03:17:37;16.80;;;7.32;;
64498;SDS011;51087;55.718;21.122;2023-11-21T03:20:03;20.02;;;9.23;;
64498;SDS011;51087;55.718;21.122;2023-11-21T03:22:29;22.42;;;9.18;;
64498;SDS011;51087;55.718;21.122;2023-11-21T03:24:54;20.48;;;7.90;;
64498;SDS011;51087;55.718;21.122;2023-11-21T03:27:19;18.95;;;8.93;;
64498;SDS011;51087;55.718;21.122;2023-11-21T03:29:44;25.08;;;10.25;;
64498;SDS011;51087;55.718;21.122;2023-11-21T03:32:11;21.77;;;9.55;;
64498;SDS011;51087;55.718;21.122;2023-11-21T03:34:49;19.80;;;7.35;;
64498;SDS011;51087;55.718;21.122;2023-11-21T03:37:17;16.02;;;6.82;;
64498;SDS011;51087;55.718;21.122;2023-11-21T03:39:43;26.55;;;9.70;;
64498;SDS011;51087;55.718;21.122;2023-11-21T03:42:08;21.42;;;9.30;;
64498;SDS011;51087;55.718;21.122;2023-11-21T03:44:34;19.42;;;8.45;;
64498;SDS011;51087;55.718;21.122;2023-11-21T03:46:59;22.27;;;9.48;;
64498;SDS011;51087;55.718;21.122;2023-11-21T03:49:24;26.42;;;10.93;;
64498;SDS011;51087;55.718;21.122;2023-11-21T03:51:49;16.25;;;6.70;;
64498;SDS011;51087;55.718;21.122;2023-11-21T03:54:15;24.70;;;8.98;;
64498;SDS011;51087;55.718;21.122;2023-11-21T03:56:40;23.80;;;10.10;;
64498;SDS011;51087;55.718;21.122;2023-11-21T03:59:05;24.05;;;8.13;;
64498;SDS011;51087;55.718;21.122;2023-11-21T04:01:30;17.63;;;7.97;;
64498;SDS011;51087;55.718;21.122;2023-11-21T04:03:56;20.50;;;8.85;;
64498;SDS011;51087;55.718;21.122;2023-11-21T04:06:22;18.02;;;7.60;;
64498;SDS011;51087;55.718;21.122;2023-11-21T04:08:47;24.00;;;8.90;;
64498;SDS011;51087;55.718;21.122;2023-11-21T04:11:12;24.27;;;10.13;;
64498;SDS011;51087;55.718;21.122;2023-11-21T04:13:39;13.48;;;5.78;;
64498;SDS011;51087;55.718;21.122;2023-11-21T04:16:05;12.43;;;5.20;;
64498;SDS011;51087;55.718;21.122;2023-11-21T04:18:30;21.30;;;8.75;;
64498;SDS011;51087;55.718;21.122;2023-11-21T04:20:56;20.02;;;8.43;;
64498;SDS011;51087;55.718;21.122;2023-11-21T04:23:21;21.40;;;7.85;;
64498;SDS011;51087;55.718;21.122;2023-11-21T04:25:46;24.77;;;8.73;;
64498;SDS011;51087;55.718;21.122;2023-11-21T04:28:12;22.52;;;8.00;;
64498;SDS011;51087;55.718;21.122;2023-11-21T04:30:38;20.00;;;7.75;;
64498;SDS011;51087;55.718;21.122;2023-11-21T04:33:04;18.42;;;8.25;;
64498;SDS011;51087;55.718;21.122;2023-11-21T04:35:29;20.30;;;8.60;;
64498;SDS011;51087;55.718;21.122;2023-11-21T04:37:56;18.73;;;7.45;;
64498;SDS011;51087;55.718;21.122;2023-11-21T04:40:22;18.90;;;6.68;;
64498;SDS011;51087;55.718;21.122;2023-11-21T04:42:47;18.73;;;7.85;;
64498;SDS011;51087;55.718;21.122;2023-11-21T04:45:13;20.63;;;8.10;;
64498;SDS011;51087;55.718;21.122;2023-11-21T04:47:38;20.25;;;8.25;;
64498;SDS011;51087;55.718;21.122;2023-11-21T04:50:03;15.10;;;6.50;;
64498;SDS011;51087;55.718;21.122;2023-11-21T04:52:29;19.58;;;7.97;;
64498;SDS011;51087;55.718;21.122;2023-11-21T04:54:54;16.42;;;7.70;;
64498;SDS011;51087;55.718;21.122;2023-11-21T04:57:22;18.23;;;6.15;;
64498;SDS011;51087;55.718;21.122;2023-11-21T04:59:50;20.95;;;7.78;;
64498;SDS011;51087;55.718;21.122;2023-11-21T05:02:16;16.75;;;7.43;;
64498;SDS011;51087;55.718;21.122;2023-11-21T05:04:41;16.70;;;7.32;;
64498;SDS011;51087;55.718;21.122;2023-11-21T05:07:07;21.63;;;7.45;;
64498;SDS011;51087;55.718;21.122;2023-11-21T05:09:33;15.00;;;6.78;;
64498;SDS011;51087;55.718;21.122;2023-11-21T05:11:59;13.52;;;5.47;;
64498;SDS011;51087;55.718;21.122;2023-11-21T05:14:25;15.93;;;6.25;;
64498;SDS011;51087;55.718;21.122;2023-11-21T05:16:50;15.55;;;6.30;;
64498;SDS011;51087;55.718;21.122;2023-11-21T05:19:16;13.57;;;6.00;;
64498;SDS011;51087;55.718;21.122;2023-11-21T05:21:41;11.77;;;5.53;;
64498;SDS011;51087;55.718;21.122;2023-11-21T05:24:06;12.35;;;6.05;;
64498;SDS011;51087;55.718;21.122;2023-11-21T05:26:32;13.57;;;5.78;;
64498;SDS011;51087;55.718;21.122;2023-11-21T05:28:57;12.05;;;5.47;;
64498;SDS011;51087;55.718;21.122;2023-11-21T05:31:22;13.70;;;6.00;;
64498;SDS011;51087;55.718;21.122;2023-11-21T05:33:47;14.57;;;5.95;;
64498;SDS011;51087;55.718;21.122;2023-11-21T05:36:13;14.55;;;6.43;;
64498;SDS011;51087;55.718;21.122;2023-11-21T05:38:38;10.88;;;5.43;;
64498;SDS011;51087;55.718;21.122;2023-11-21T05:41:03;16.20;;;5.53;;
64498;SDS011;51087;55.718;21.122;2023-11-21T05:43:29;10.68;;;5.43;;
64498;SDS011;51087;55.718;21.122;2023-11-21T05:45:57;11.02;;;4.25;;
64498;SDS011;51087;55.718;21.122;2023-11-21T05:48:22;5.43;;;2.75;;
64498;SDS011;51087;55.718;21.122;2023-11-21T05:50:48;11.82;;;4.45;;
64498;SDS011;51087;55.718;21.122;2023-11-21T05:53:14;14.18;;;6.35;;
64498;SDS011;51087;55.718;21.122;2023-11-21T05:55:40;13.10;;;5.40;;
64498;SDS011;51087;55.718;21.122;2023-11-21T05:58:06;11.45;;;5.43;;
64498;SDS011;51087;55.718;21.122;2023-11-21T06:00:32;11.65;;;5.05;;
64498;SDS011;51087;55.718;21.122;2023-11-21T06:02:58;11.82;;;5.20;;
64498;SDS011;51087;55.718;21.122;2023-11-21T06:05:24;14.73;;;5.45;;
64498;SDS011;51087;55.718;21.122;2023-11-21T06:07:49;11.82;;;5.13;;
64498;SDS011;51087;55.718;21.122;2023-11-21T06:10:16;13.50;;;5.50;;
64498;SDS011;51087;55.718;21.122;2023-11-21T06:12:44;14.48;;;5.85;;
64498;SDS011;51087;55.718;21.122;2023-11-21T06:15:09;13.48;;;5.90;;
64498;SDS011;51087;55.718;21.122;2023-11-21T06:17:38;11.00;;;4.85;;
64498;SDS011;51087;55.718;21.122;2023-11-21T06:20:05;13.45;;;6.10;;
64498;SDS011;51087;55.718;21.122;2023-11-21T06:22:37;16.25;;;6.43;;
64498;SDS011;51087;55.718;21.122;2023-11-21T06:25:03;12.85;;;5.18;;
64498;SDS011;51087;55.718;21.122;2023-11-21T06:27:33;12.65;;;6.15;;
64498;SDS011;51087;55.718;21.122;2023-11-21T06:29:59;10.85;;;4.55;;
64498;SDS011;51087;55.718;21.122;2023-11-21T06:32:24;11.43;;;5.18;;
64498;SDS011;51087;55.718;21.122;2023-11-21T06:34:51;11.82;;;6.10;;
64498;SDS011;51087;55.718;21.122;2023-11-21T06:37:19;9.82;;;3.95;;
64498;SDS011;51087;55.718;21.122;2023-11-21T06:39:47;19.70;;;6.30;;
64498;SDS011;51087;55.718;21.122;2023-11-21T06:42:13;12.27;;;6.15;;
64498;SDS011;51087;55.718;21.122;2023-11-21T06:44:38;15.55;;;6.60;;
64498;SDS011;51087;55.718;21.122;2023-11-21T06:47:04;18.98;;;7.07;;
64498;SDS011;51087;55.718;21.122;2023-11-21T06:49:31;18.83;;;6.38;;
64498;SDS011;51087;55.718;21.122;2023-11-21T06:51:56;15.80;;;7.20;;
64498;SDS011;51087;55.718;21.122;2023-11-21T06:54:22;16.13;;;6.97;;
64498;SDS011;51087;55.718;21.122;2023-11-21T06:56:47;10.73;;;5.38;;
64498;SDS011;51087;55.718;21.122;2023-11-21T06:59:13;15.82;;;7.10;;
64498;SDS011;51087;55.718;21.122;2023-11-21T07:01:38;15.85;;;5.95;;
64498;SDS011;51087;55.718;21.122;2023-11-21T07:04:06;14.82;;;6.78;;
64498;SDS011;51087;55.718;21.122;2023-11-21T07:06:32;13.60;;;6.50;;
64498;SDS011;51087;55.718;21.122;2023-11-21T07:08:57;14.32;;;6.80;;
64498;SDS011;51087;55.718;21.122;2023-11-21T07:11:23;13.43;;;5.93;;
64498;SDS011;51087;55.718;21.122;2023-11-21T07:13:49;16.15;;;6.00;;
64498;SDS011;51087;55.718;21.122;2023-11-21T07:16:14;12.70;;;5.82;;
64498;SDS011;51087;55.718;21.122;2023-11-21T07:18:40;8.73;;;4.30;;
64498;SDS011;51087;55.718;21.122;2023-11-21T07:21:06;13.98;;;5.80;;
64498;SDS011;51087;55.718;21.122;2023-11-21T07:23:31;10.13;;;4.60;;
64498;SDS011;51087;55.718;21.122;2023-11-21T07:25:56;14.43;;;5.88;;
64498;SDS011;51087;55.718;21.122;2023-11-21T07:28:22;11.13;;;5.72;;
64498;SDS011;51087;55.718;21.122;2023-11-21T07:30:48;15.00;;;5.90;;
64498;SDS011;51087;55.718;21.122;2023-11-21T07:33:14;11.32;;;5.80;;
64498;SDS011;51087;55.718;21.122;2023-11-21T07:35:39;10.07;;;5.00;;
64498;SDS011;51087;55.718;21.122;2023-11-21T07:38:04;12.05;;;5.53;;
64498;SDS011;51087;55.718;21.122;2023-11-21T07:40:30;14.65;;;5.65;;
64498;SDS011;51087;55.718;21.122;2023-11-21T07:42:55;10.98;;;5.45;;
64498;SDS011;51087;55.718;21.122;2023-11-21T07:45:22;13.10;;;4.53;;
64498;SDS011;51087;55.718;21.122;2023-11-21T07:47:47;11.80;;;4.60;;
64498;SDS011;51087;55.718;21.122;2023-11-21T07:50:13;12.93;;;5.20;;
64498;SDS011;51087;55.718;21.122;2023-11-21T07:52:38;9.65;;;5.18;;
64498;SDS011;51087;55.718;21.122;2023-11-21T07:55:04;13.57;;;5.60;;
64498;SDS011;51087;55.718;21.122;2023-11-21T07:57:30;11.68;;;5.65;;
64498;SDS011;51087;55.718;21.122;2023-11-21T07:59:55;12.38;;;4.60;;
64498;SDS011;51087;55.718;21.122;2023-11-21T08:02:21;11.68;;;5.47;;
64498;SDS011;51087;55.718;21.122;2023-11-21T08:04:46;11.00;;;5.55;;
64498;SDS011;51087;55.718;21.122;2023-11-21T08:07:14;15.23;;;5.97;;
64498;SDS011;51087;55.718;21.122;2023-11-21T08:09:39;14.07;;;6.03;;
64498;SDS011;51087;55.718;21.122;2023-11-21T08:12:04;11.48;;;5.05;;
64498;SDS011;51087;55.718;21.122;2023-11-21T08:14:32;12.32;;;5.90;;
64498;SDS011;51087;55.718;21.122;2023-11-21T08:16:57;10.07;;;4.95;;
64498;SDS011;51087;55.718;21.122;2023-11-21T08:19:23;10.90;;;5.05;;
64498;SDS011;51087;55.718;21.122;2023-11-21T08:21:50;11.20;;;5.00;;
64498;SDS011;51087;55.718;21.122;2023-11-21T08:24:15;9.63;;;4.63;;
64498;SDS011;51087;55.718;21.122;2023-11-21T08:26:41;6.50;;;3.67;;
64498;SDS011;51087;55.718;21.122;2023-11-21T08:29:06;9.65;;;4.65;;
64498;SDS011;51087;55.718;21.122;2023-11-21T08:31:34;11.27;;;5.07;;
64498;SDS011;51087;55.718;21.122;2023-11-21T08:33:59;10.13;;;5.18;;
64498;SDS011;51087;55.718;21.122;2023-11-21T08:36:27;5.53;;;3.08;;
64498;SDS011;51087;55.718;21.122;2023-11-21T08:38:53;8.35;;;4.50;;
64498;SDS011;51087;55.718;21.122;2023-11-21T08:41:18;11.15;;;4.45;;
64498;SDS011;51087;55.718;21.122;2023-11-21T08:43:47;7.95;;;4.38;;
64498;SDS011;51087;55.718;21.122;2023-11-21T08:46:13;6.90;;;3.08;;
64498;SDS011;51087;55.718;21.122;2023-11-21T08:48:38;10.43;;;4.60;;
64498;SDS011;51087;55.718;21.122;2023-11-21T08:51:06;9.38;;;4.93;;
64498;SDS011;51087;55.718;21.122;2023-11-21T08:53:31;9.20;;;4.20;;
64498;SDS011;51087;55.718;21.122;2023-11-21T08:55:57;8.75;;;4.03;;
64498;SDS011;51087;55.718;21.122;2023-11-21T08:58:23;9.30;;;4.18;;
64498;SDS011;51087;55.718;21.122;2023-11-21T09:00:48;7.75;;;4.43;;
64498;SDS011;51087;55.718;21.122;2023-11-21T09:03:14;12.88;;;3.90;;
64498;SDS011;51087;55.718;21.122;2023-11-21T09:05:39;7.38;;;3.80;;
64498;SDS011;51087;55.718;21.122;2023-11-21T09:08:05;8.35;;;3.65;;
64498;SDS011;51087;55.718;21.122;2023-11-21T09:10:30;11.48;;;3.63;;
64498;SDS011;51087;55.718;21.122;2023-11-21T09:12:55;7.93;;;3.42;;
64498;SDS011;51087;55.718;21.122;2023-11-21T09:15:21;9.82;;;3.50;;
64498;SDS011;51087;55.718;21.122;2023-11-21T09:17:47;4.93;;;2.33;;
64498;SDS011;51087;55.718;21.122;2023-11-21T09:20:12;7.47;;;3.05;;
64498;SDS011;51087;55.718;21.122;2023-11-21T09:22:39;5.05;;;2.55;;
64498;SDS011;51087;55.718;21.122;2023-11-21T09:25:05;6.82;;;3.42;;
64498;SDS011;51087;55.718;21.122;2023-11-21T09:27:31;7.95;;;4.22;;
64498;SDS011;51087;55.718;21.122;2023-11-21T09:29:56;7.68;;;3.90;;
64498;SDS011;51087;55.718;21.122;2023-11-21T09:32:23;5.80;;;3.28;;
64498;SDS011;51087;55.718;21.122;2023-11-21T09:34:48;6.88;;;3.05;;
64498;SDS011;51087;55.718;21.122;2023-11-21T09:37:14;8.95;;;3.33;;
64498;SDS011;51087;55.718;21.122;2023-11-21T09:39:39;7.40;;;3.25;;
64498;SDS011;51087;55.718;21.122;2023-11-21T09:42:12;5.43;;;2.78;;
64498;SDS011;51087;55.718;21.122;2023-11-21T09:44:45;2.97;;;1.75;;
64498;SDS011;51087;55.718;21.122;2023-11-21T09:47:11;4.97;;;2.20;;
64498;SDS011;51087;55.718;21.122;2023-11-21T09:49:38;6.00;;;2.60;;
64498;SDS011;51087;55.718;21.122;2023-11-21T09:52:05;9.32;;;3.05;;
64498;SDS011;51087;55.718;21.122;2023-11-21T09:54:31;4.07;;;2.40;;
64498;SDS011;51087;55.718;21.122;2023-11-21T09:56:58;7.10;;;2.53;;
64498;SDS011;51087;55.718;21.122;2023-11-21T09:59:30;5.72;;;3.15;;
64498;SDS011;51087;55.718;21.122;2023-11-21T10:01:55;5.28;;;2.67;;
64498;SDS011;51087;55.718;21.122;2023-11-21T10:04:23;4.22;;;2.05;;
64498;SDS011;51087;55.718;21.122;2023-11-21T10:06:48;2.65;;;1.52;;
64498;SDS011;51087;55.718;21.122;2023-11-21T10:09:15;11.00;;;3.30;;
64498;SDS011;51087;55.718;21.122;2023-11-21T10:11:41;8.75;;;2.63;;
64498;SDS011;51087;55.718;21.122;2023-11-21T10:14:07;9.95;;;2.65;;
64498;SDS011;51087;55.718;21.122;2023-11-21T10:16:34;8.75;;;2.75;;
64498;SDS011;51087;55.718;21.122;2023-11-21T10:19:00;8.45;;;3.28;;
64498;SDS011;51087;55.718;21.122;2023-11-21T10:21:26;9.75;;;3.13;;
64498;SDS011;51087;55.718;21.122;2023-11-21T10:23:53;8.85;;;3.40;;
64498;SDS011;51087;55.718;21.122;2023-11-21T10:26:19;5.65;;;3.28;;
64498;SDS011;51087;55.718;21.122;2023-11-21T10:28:58;3.90;;;2.15;;
64498;SDS011;51087;55.718;21.122;2023-11-21T10:31:24;5.45;;;3.00;;
64498;SDS011;51087;55.718;21.122;2023-11-21T10:33:50;4.75;;;2.80;;
64498;SDS011;51087;55.718;21.122;2023-11-21T10:36:26;5.93;;;2.60;;
64498;SDS011;51087;55.718;21.122;2023-11-21T10:38:52;9.05;;;3.22;;
64498;SDS011;51087;55.718;21.122;2023-11-21T10:41:18;7.78;;;3.58;;
64498;SDS011;51087;55.718;21.122;2023-11-21T10:43:43;8.10;;;3.35;;
64498;SDS011;51087;55.718;21.122;2023-11-21T10:46:09;6.57;;;3.40;;
64498;SDS011;51087;55.718;21.122;2023-11-21T10:48:34;1.65;;;1.08;;
64498;SDS011;51087;55.718;21.122;2023-11-21T10:51:01;6.20;;;3.08;;
64498;SDS011;51087;55.718;21.122;2023-11-21T10:53:32;9.20;;;3.45;;
64498;SDS011;51087;55.718;21.122;2023-11-21T10:56:08;6.80;;;3.35;;
64498;SDS011;51087;55.718;21.122;2023-11-21T10:58:34;11.27;;;3.58;;
64498;SDS011;51087;55.718;21.122;2023-11-21T11:01:00;8.35;;;3.17;;
64498;SDS011;51087;55.718;21.122;2023-11-21T11:03:29;4.03;;;2.15;;
64498;SDS011;51087;55.718;21.122;2023-11-21T11:05:54;5.78;;;3.22;;
64498;SDS011;51087;55.718;21.122;2023-11-21T11:08:22;7.50;;;3.40;;
64498;SDS011;51087;55.718;21.122;2023-11-21T11:10:51;7.85;;;3.97;;
64498;SDS011;51087;55.718;21.122;2023-11-21T11:13:17;14.13;;;5.95;;
64498;SDS011;51087;55.718;21.122;2023-11-21T11:15:43;9.32;;;3.75;;
64498;SDS011;51087;55.718;21.122;2023-11-21T11:18:12;12.55;;;4.18;;
64498;SDS011;51087;55.718;21.122;2023-11-21T11:20:38;6.95;;;3.25;;
64498;SDS011;51087;55.718;21.122;2023-11-21T11:25:53;12.73;;;3.03;;
64498;SDS011;51087;55.718;21.122;2023-11-21T11:28:27;9.68;;;2.92;;
64498;SDS011;51087;55.718;21.122;2023-11-21T11:38:46;6.15;;;2.75;;
64498;SDS011;51087;55.718;21.122;2023-11-21T11:41:14;3.92;;;1.75;;
64498;SDS011;51087;55.718;21.122;2023-11-21T11:43:48;6.53;;;2.80;;
64498;SDS011;51087;55.718;21.122;2023-11-21T11:46:14;14.02;;;3.40;;
64498;SDS011;51087;55.718;21.122;2023-11-21T11:48:40;5.22;;;2.65;;
64498;SDS011;51087;55.718;21.122;2023-11-21T11:51:12;1.35;;;1.00;;
64498;SDS011;51087;55.718;21.122;2023-11-21T11:53:39;4.97;;;2.10;;
64498;SDS011;51087;55.718;21.122;2023-11-21T11:58:58;4.47;;;2.63;;
64498;SDS011;51087;55.718;21.122;2023-11-21T12:01:25;5.75;;;2.47;;
64498;SDS011;51087;55.718;21.122;2023-11-21T12:09:03;2.30;;;1.37;;
64498;SDS011;51087;55.718;21.122;2023-11-21T12:11:31;5.82;;;2.25;;
64498;SDS011;51087;55.718;21.122;2023-11-21T12:13:57;4.47;;;1.88;;
64498;SDS011;51087;55.718;21.122;2023-11-21T12:16:24;6.95;;;1.90;;
64498;SDS011;51087;55.718;21.122;2023-11-21T12:18:52;4.32;;;2.58;;
64498;SDS011;51087;55.718;21.122;2023-11-21T12:21:18;7.20;;;2.40;;
64498;SDS011;51087;55.718;21.122;2023-11-21T12:23:44;7.13;;;2.95;;
64498;SDS011;51087;55.718;21.122;2023-11-21T12:26:12;4.63;;;2.47;;
64498;SDS011;51087;55.718;21.122;2023-11-21T12:28:38;6.93;;;3.00;;
64498;SDS011;51087;55.718;21.122;2023-11-21T12:31:03;4.25;;;1.90;;
64498;SDS011;51087;55.718;21.122;2023-11-21T12:33:29;4.75;;;2.38;;
64498;SDS011;51087;55.718;21.122;2023-11-21T12:35:55;6.55;;;2.35;;
64498;SDS011;51087;55.718;21.122;2023-11-21T12:38:23;2.75;;;1.70;;
64498;SDS011;51087;55.718;21.122;2023-11-21T12:40:49;6.25;;;2.30;;
64498;SDS011;51087;55.718;21.122;2023-11-21T12:43:15;6.15;;;2.05;;
64498;SDS011;51087;55.718;21.122;2023-11-21T12:45:43;4.28;;;2.30;;
64498;SDS011;51087;55.718;21.122;2023-11-21T12:48:09;3.63;;;2.15;;
64498;SDS011;51087;55.718;21.122;2023-11-21T12:50:36;5.38;;;2.40;;
64498;SDS011;51087;55.718;21.122;2023-11-21T12:53:09;8.27;;;2.35;;
64498;SDS011;51087;55.718;21.122;2023-11-21T12:55:35;8.20;;;2.78;;
64498;SDS011;51087;55.718;21.122;2023-11-21T12:58:03;6.03;;;2.10;;
64498;SDS011;51087;55.718;21.122;2023-11-21T13:00:41;6.00;;;2.60;;
64498;SDS011;51087;55.718;21.122;2023-11-21T13:05:33;6.18;;;2.10;;
64498;SDS011;51087;55.718;21.122;2023-11-21T13:07:59;6.35;;;2.50;;
64498;SDS011;51087;55.718;21.122;2023-11-21T13:10:27;4.65;;;2.30;;
64498;SDS011;51087;55.718;21.122;2023-11-21T13:12:58;7.65;;;2.80;;
64498;SDS011;51087;55.718;21.122;2023-11-21T13:15:25;3.47;;;1.75;;
64498;SDS011;51087;55.718;21.122;2023-11-21T13:17:50;11.63;;;3.05;;
64498;SDS011;51087;55.718;21.122;2023-11-21T13:20:16;6.43;;;2.85;;
64498;SDS011;51087;55.718;21.122;2023-11-21T13:22:46;17.27;;;3.13;;
64498;SDS011;51087;55.718;21.122;2023-11-21T13:25:11;6.47;;;2.70;;
64498;SDS011;51087;55.718;21.122;2023-11-21T13:27:39;8.40;;;2.55;;
64498;SDS011;51087;55.718;21.122;2023-11-21T13:30:05;8.48;;;3.40;;
64498;SDS011;51087;55.718;21.122;2023-11-21T13:32:33;7.25;;;3.15;;
64498;SDS011;51087;55.718;21.122;2023-11-21T13:35:00;9.27;;;3.28;;
64498;SDS011;51087;55.718;21.122;2023-11-21T13:37:25;7.00;;;2.65;;
64498;SDS011;51087;55.718;21.122;2023-11-21T13:39:53;11.52;;;3.20;;
64498;SDS011;51087;55.718;21.122;2023-11-21T13:42:19;16.33;;;2.97;;
64498;SDS011;51087;55.718;21.122;2023-11-21T13:44:47;6.93;;;2.92;;
64498;SDS011;51087;55.718;21.122;2023-11-21T13:47:14;7.28;;;2.85;;
64498;SDS011;51087;55.718;21.122;2023-11-21T13:49:39;7.55;;;3.28;;
64498;SDS011;51087;55.718;21.122;2023-11-21T13:52:06;13.13;;;4.82;;
64498;SDS011;51087;55.718;21.122;2023-11-21T13:54:32;9.18;;;3.55;;
64498;SDS011;51087;55.718;21.122;2023-11-21T13:56:57;13.98;;;3.13;;
64498;SDS011;51087;55.718;21.122;2023-11-21T13:59:24;7.60;;;2.72;;
64498;SDS011;51087;55.718;21.122;2023-11-21T14:01:55;15.65;;;2.95;;
64498;SDS011;51087;55.718;21.122;2023-11-21T14:04:22;7.38;;;2.85;;
64498;SDS011;51087;55.718;21.122;2023-11-21T14:07:05;8.05;;;3.03;;
64498;SDS011;51087;55.718;21.122;2023-11-21T14:09:51;7.50;;;2.92;;
64498;SDS011;51087;55.718;21.122;2023-11-21T14:12:17;7.40;;;3.03;;
64498;SDS011;51087;55.718;21.122;2023-11-21T14:14:43;4.88;;;2.50;;
64498;SDS011;51087;55.718;21.122;2023-11-21T14:17:10;5.65;;;2.45;;
64498;SDS011;51087;55.718;21.122;2023-11-21T14:19:35;10.85;;;3.15;;
64498;SDS011;51087;55.718;21.122;2023-11-21T14:22:05;6.00;;;2.47;;
64498;SDS011;51087;55.718;21.122;2023-11-21T14:24:30;9.60;;;3.10;;
64498;SDS011;51087;55.718;21.122;2023-11-21T14:26:57;7.55;;;2.75;;
64498;SDS011;51087;55.718;21.122;2023-11-21T14:29:22;5.32;;;2.75;;
64498;SDS011;51087;55.718;21.122;2023-11-21T14:31:48;9.50;;;3.20;;
64498;SDS011;51087;55.718;21.122;2023-11-21T14:34:15;8.20;;;3.80;;
64498;SDS011;51087;55.718;21.122;2023-11-21T14:36:41;9.52;;;3.70;;
64498;SDS011;51087;55.718;21.122;2023-11-21T14:39:09;8.13;;;3.10;;
64498;SDS011;51087;55.718;21.122;2023-11-21T14:41:47;9.40;;;3.17;;